sensor_id;sensor_type;location;lat;lon;timestamp;temperature;humidity
67196;DHT22;54122;53.538;49.366;2023-11-19T00:01:50;-5.20;87.70
67196;DHT22;54122;53.538;49.366;2023-11-19T00:04:17;-5.30;88.20
67196;DHT22;54122;53.538;49.366;2023-11-19T00:06:44;-5.30;88.80
67196;DHT22;54122;53.538;49.366;2023-11-19T00:09:11;-5.20;88.60
67196;DHT22;54122;53.538;49.366;2023-11-19T00:11:38;-5.20;88.60
67196;DHT22;54122;53.538;49.366;2023-11-19T00:14:06;-5.20;88.70
67196;DHT22;54122;53.538;49.366;2023-11-19T00:16:35;-5.30;88.70
67196;DHT22;54122;53.538;49.366;2023-11-19T00:19:02;-5.40;88.80
67196;DHT22;54122;53.538;49.366;2023-11-19T00:21:30;-5.50;88.70
67196;DHT22;54122;53.538;49.366;2023-11-19T00:23:59;-5.50;88.80
67196;DHT22;54122;53.538;49.366;2023-11-19T00:26:26;-5.50;88.90
67196;DHT22;54122;53.538;49.366;2023-11-19T00:28:53;-5.50;88.90
67196;DHT22;54122;53.538;49.366;2023-11-19T00:31:20;-5.60;88.80
67196;DHT22;54122;53.538;49.366;2023-11-19T00:33:47;-5.70;88.50
67196;DHT22;54122;53.538;49.366;2023-11-19T00:36:14;-5.90;88.60
67196;DHT22;54122;53.538;49.366;2023-11-19T00:38:41;-6.00;88.90
67196;DHT22;54122;53.538;49.366;2023-11-19T00:41:08;-6.20;89.40
67196;DHT22;54122;53.538;49.366;2023-11-19T00:43:35;-6.30;90.30
67196;DHT22;54122;53.538;49.366;2023-11-19T00:46:02;-6.40;90.00
67196;DHT22;54122;53.538;49.366;2023-11-19T00:48:29;-6.50;90.20
67196;DHT22;54122;53.538;49.366;2023-11-19T00:50:58;-6.60;90.30
67196;DHT22;54122;53.538;49.366;2023-11-19T00:53:24;-6.70;90.30
67196;DHT22;54122;53.538;49.366;2023-11-19T00:55:51;-6.70;90.40
67196;DHT22;54122;53.538;49.366;2023-11-19T00:58:17;-6.80;90.50
67196;DHT22;54122;53.538;49.366;2023-11-19T01:00:44;-6.80;90.60
67196;DHT22;54122;53.538;49.366;2023-11-19T01:03:11;-6.80;90.60
67196;DHT22;54122;53.538;49.366;2023-11-19T01:05:38;-6.90;90.50
67196;DHT22;54122;53.538;49.366;2023-11-19T01:08:05;-6.90;90.50
67196;DHT22;54122;53.538;49.366;2023-11-19T01:10:32;-6.90;90.60
67196;DHT22;54122;53.538;49.366;2023-11-19T01:13:00;-7.00;90.70
67196;DHT22;54122;53.538;49.366;2023-11-19T01:15:26;-7.00;90.80
67196;DHT22;54122;53.538;49.366;2023-11-19T01:17:53;-7.00;90.80
67196;DHT22;54122;53.538;49.366;2023-11-19T01:20:20;-7.10;90.80
67196;DHT22;54122;53.538;49.366;2023-11-19T01:22:47;-7.10;90.90
67196;DHT22;54122;53.538;49.366;2023-11-19T01:25:15;-7.10;91.30
67196;DHT22;54122;53.538;49.366;2023-11-19T01:27:42;-7.10;90.80
67196;DHT22;54122;53.538;49.366;2023-11-19T01:30:10;-7.10;90.80
67196;DHT22;54122;53.538;49.366;2023-11-19T01:32:39;-7.10;90.80
67196;DHT22;54122;53.538;49.366;2023-11-19T01:35:06;-7.00;90.90
67196;DHT22;54122;53.538;49.366;2023-11-19T01:37:34;-7.00;90.90
67196;DHT22;54122;53.538;49.366;2023-11-19T01:40:03;-6.90;90.80
67196;DHT22;54122;53.538;49.366;2023-11-19T01:42:38;-6.90;90.70
67196;DHT22;54122;53.538;49.366;2023-11-19T01:45:06;-6.80;90.80
67196;DHT22;54122;53.538;49.366;2023-11-19T01:47:37;-6.70;90.70
67196;DHT22;54122;53.538;49.366;2023-11-19T01:50:06;-6.60;90.40
67196;DHT22;54122;53.538;49.366;2023-11-19T01:52:35;-6.50;90.40
67196;DHT22;54122;53.538;49.366;2023-11-19T01:55:04;-6.40;90.40
67196;DHT22;54122;53.538;49.366;2023-11-19T01:57:31;-6.40;90.30
67196;DHT22;54122;53.538;49.366;2023-11-19T01:59:57;-6.30;90.20
67196;DHT22;54122;53.538;49.366;2023-11-19T02:02:24;-6.20;90.10
67196;DHT22;54122;53.538;49.366;2023-11-19T02:04:52;-6.10;89.70
67196;DHT22;54122;53.538;49.366;2023-11-19T02:07:19;-6.10;89.70
67196;DHT22;54122;53.538;49.366;2023-11-19T02:09:46;-6.10;89.50
67196;DHT22;54122;53.538;49.366;2023-11-19T02:12:12;-6.20;89.40
67196;DHT22;54122;53.538;49.366;2023-11-19T02:14:39;-6.20;89.40
67196;DHT22;54122;53.538;49.366;2023-11-19T02:17:05;-6.30;89.70
67196;DHT22;54122;53.538;49.366;2023-11-19T02:19:31;-6.30;90.00
67196;DHT22;54122;53.538;49.366;2023-11-19T02:21:57;-6.30;90.00
67196;DHT22;54122;53.538;49.366;2023-11-19T02:24:28;-6.40;89.80
67196;DHT22;54122;53.538;49.366;2023-11-19T02:27:04;-6.50;89.90
67196;DHT22;54122;53.538;49.366;2023-11-19T02:29:33;-6.60;90.10
67196;DHT22;54122;53.538;49.366;2023-11-19T02:32:00;-6.60;90.30
67196;DHT22;54122;53.538;49.366;2023-11-19T02:34:27;-6.70;90.30
67196;DHT22;54122;53.538;49.366;2023-11-19T02:36:54;-6.70;90.30
67196;DHT22;54122;53.538;49.366;2023-11-19T02:39:20;-6.70;90.40
67196;DHT22;54122;53.538;49.366;2023-11-19T02:41:48;-6.80;90.30
67196;DHT22;54122;53.538;49.366;2023-11-19T02:44:17;-6.90;90.30
67196;DHT22;54122;53.538;49.366;2023-11-19T02:46:43;-7.00;90.30
67196;DHT22;54122;53.538;49.366;2023-11-19T02:49:10;-7.10;90.40
67196;DHT22;54122;53.538;49.366;2023-11-19T02:51:36;-7.20;90.50
67196;DHT22;54122;53.538;49.366;2023-11-19T02:54:03;-7.30;90.60
67196;DHT22;54122;53.538;49.366;2023-11-19T02:56:30;-7.40;90.80
67196;DHT22;54122;53.538;49.366;2023-11-19T02:59:01;-7.50;90.90
67196;DHT22;54122;53.538;49.366;2023-11-19T03:01:38;-7.50;91.10
67196;DHT22;54122;53.538;49.366;2023-11-19T03:04:09;-7.60;91.10
67196;DHT22;54122;53.538;49.366;2023-11-19T03:06:38;-7.70;91.20
67196;DHT22;54122;53.538;49.366;2023-11-19T03:09:04;-7.80;91.20
67196;DHT22;54122;53.538;49.366;2023-11-19T03:11:37;-7.90;91.30
67196;DHT22;54122;53.538;49.366;2023-11-19T03:14:04;-7.90;91.30
67196;DHT22;54122;53.538;49.366;2023-11-19T03:16:30;-7.90;91.30
67196;DHT22;54122;53.538;49.366;2023-11-19T03:18:57;-8.00;91.40
67196;DHT22;54122;53.538;49.366;2023-11-19T03:21:30;-8.00;91.40
67196;DHT22;54122;53.538;49.366;2023-11-19T03:24:00;-8.10;91.50
67196;DHT22;54122;53.538;49.366;2023-11-19T03:26:27;-8.10;91.70
67196;DHT22;54122;53.538;49.366;2023-11-19T03:28:54;-8.10;91.80
67196;DHT22;54122;53.538;49.366;2023-11-19T03:31:22;-8.10;91.70
67196;DHT22;54122;53.538;49.366;2023-11-19T03:33:49;-8.20;91.70
67196;DHT22;54122;53.538;49.366;2023-11-19T03:36:15;-8.20;91.70
67196;DHT22;54122;53.538;49.366;2023-11-19T03:38:42;-8.30;91.70
67196;DHT22;54122;53.538;49.366;2023-11-19T03:41:12;-8.30;91.80
67196;DHT22;54122;53.538;49.366;2023-11-19T03:43:40;-8.30;92.00
67196;DHT22;54122;53.538;49.366;2023-11-19T03:46:20;-8.20;92.00
67196;DHT22;54122;53.538;49.366;2023-11-19T03:48:48;-8.20;92.00
67196;DHT22;54122;53.538;49.366;2023-11-19T03:51:15;-8.20;92.00
67196;DHT22;54122;53.538;49.366;2023-11-19T03:53:45;-8.30;91.90
67196;DHT22;54122;53.538;49.366;2023-11-19T03:56:12;-8.20;91.90
67196;DHT22;54122;53.538;49.366;2023-11-19T03:58:39;-8.30;91.80
67196;DHT22;54122;53.538;49.366;2023-11-19T04:01:10;-8.30;91.80
67196;DHT22;54122;53.538;49.366;2023-11-19T04:03:36;-8.40;91.80
67196;DHT22;54122;53.538;49.366;2023-11-19T04:06:04;-8.40;91.90
67196;DHT22;54122;53.538;49.366;2023-11-19T04:08:30;-8.40;91.90
67196;DHT22;54122;53.538;49.366;2023-11-19T04:10:56;-8.40;92.00
67196;DHT22;54122;53.538;49.366;2023-11-19T04:13:23;-8.30;92.10
67196;DHT22;54122;53.538;49.366;2023-11-19T04:15:50;-8.20;92.10
67196;DHT22;54122;53.538;49.366;2023-11-19T04:18:16;-8.20;91.90
67196;DHT22;54122;53.538;49.366;2023-11-19T04:20:42;-8.10;91.90
67196;DHT22;54122;53.538;49.366;2023-11-19T04:23:09;-8.10;91.80
67196;DHT22;54122;53.538;49.366;2023-11-19T04:25:35;-8.00;91.80
67196;DHT22;54122;53.538;49.366;2023-11-19T04:28:02;-8.00;91.80
67196;DHT22;54122;53.538;49.366;2023-11-19T04:30:28;-7.90;91.90
67196;DHT22;54122;53.538;49.366;2023-11-19T04:32:54;-7.90;91.80
67196;DHT22;54122;53.538;49.366;2023-11-19T04:35:22;-7.90;91.60
67196;DHT22;54122;53.538;49.366;2023-11-19T04:37:48;-7.90;91.60
67196;DHT22;54122;53.538;49.366;2023-11-19T04:40:15;-7.90;91.60
67196;DHT22;54122;53.538;49.366;2023-11-19T04:42:41;-7.90;91.50
67196;DHT22;54122;53.538;49.366;2023-11-19T04:45:07;-7.90;91.60
67196;DHT22;54122;53.538;49.366;2023-11-19T04:47:37;-8.00;91.60
67196;DHT22;54122;53.538;49.366;2023-11-19T04:50:09;-8.00;91.60
67196;DHT22;54122;53.538;49.366;2023-11-19T04:52:39;-8.00;91.70
67196;DHT22;54122;53.538;49.366;2023-11-19T04:55:12;-8.00;91.80
67196;DHT22;54122;53.538;49.366;2023-11-19T04:57:40;-7.90;91.90
67196;DHT22;54122;53.538;49.366;2023-11-19T05:00:07;-7.80;92.10
67196;DHT22;54122;53.538;49.366;2023-11-19T05:02:34;-7.60;92.90
67196;DHT22;54122;53.538;49.366;2023-11-19T05:05:01;-7.40;92.60
67196;DHT22;54122;53.538;49.366;2023-11-19T05:07:29;-7.20;92.50
67196;DHT22;54122;53.538;49.366;2023-11-19T05:09:56;-7.00;92.50
67196;DHT22;54122;53.538;49.366;2023-11-19T05:12:23;-6.80;92.50
67196;DHT22;54122;53.538;49.366;2023-11-19T05:14:49;-6.50;92.60
67196;DHT22;54122;53.538;49.366;2023-11-19T05:17:17;-6.30;92.20
67196;DHT22;54122;53.538;49.366;2023-11-19T05:19:46;-6.10;91.90
67196;DHT22;54122;53.538;49.366;2023-11-19T05:22:13;-6.00;91.80
67196;DHT22;54122;53.538;49.366;2023-11-19T05:24:40;-5.90;91.60
67196;DHT22;54122;53.538;49.366;2023-11-19T05:27:07;-5.90;91.60
67196;DHT22;54122;53.538;49.366;2023-11-19T05:29:34;-5.80;91.70
67196;DHT22;54122;53.538;49.366;2023-11-19T05:32:00;-5.80;91.80
67196;DHT22;54122;53.538;49.366;2023-11-19T05:34:27;-5.80;91.90
67196;DHT22;54122;53.538;49.366;2023-11-19T05:36:54;-5.70;92.00
67196;DHT22;54122;53.538;49.366;2023-11-19T05:39:20;-5.60;92.00
67196;DHT22;54122;53.538;49.366;2023-11-19T05:41:47;-5.60;92.10
67196;DHT22;54122;53.538;49.366;2023-11-19T05:44:13;-5.40;92.40
67196;DHT22;54122;53.538;49.366;2023-11-19T05:46:40;-5.40;92.10
67196;DHT22;54122;53.538;49.366;2023-11-19T05:49:11;-5.30;91.80
67196;DHT22;54122;53.538;49.366;2023-11-19T05:51:39;-5.30;91.80
67196;DHT22;54122;53.538;49.366;2023-11-19T05:54:09;-5.30;91.70
67196;DHT22;54122;53.538;49.366;2023-11-19T05:56:36;-5.30;91.70
67196;DHT22;54122;53.538;49.366;2023-11-19T05:59:02;-5.40;91.80
67196;DHT22;54122;53.538;49.366;2023-11-19T06:01:34;-5.30;91.80
67196;DHT22;54122;53.538;49.366;2023-11-19T06:04:00;-5.20;91.90
67196;DHT22;54122;53.538;49.366;2023-11-19T06:06:31;-5.20;91.80
67196;DHT22;54122;53.538;49.366;2023-11-19T06:08:57;-5.20;91.60
67196;DHT22;54122;53.538;49.366;2023-11-19T06:11:24;-5.10;91.50
67196;DHT22;54122;53.538;49.366;2023-11-19T06:13:53;-5.10;91.50
67196;DHT22;54122;53.538;49.366;2023-11-19T06:16:22;-5.10;91.60
67196;DHT22;54122;53.538;49.366;2023-11-19T06:18:49;-5.10;91.60
67196;DHT22;54122;53.538;49.366;2023-11-19T06:21:15;-5.00;91.50
67196;DHT22;54122;53.538;49.366;2023-11-19T06:23:43;-5.00;91.50
67196;DHT22;54122;53.538;49.366;2023-11-19T06:26:11;-4.90;91.60
67196;DHT22;54122;53.538;49.366;2023-11-19T06:28:37;-4.80;91.40
67196;DHT22;54122;53.538;49.366;2023-11-19T06:31:04;-4.80;91.20
67196;DHT22;54122;53.538;49.366;2023-11-19T06:33:30;-4.80;91.20
67196;DHT22;54122;53.538;49.366;2023-11-19T06:35:56;-4.80;91.20
67196;DHT22;54122;53.538;49.366;2023-11-19T06:38:22;-4.70;91.20
67196;DHT22;54122;53.538;49.366;2023-11-19T06:40:49;-4.70;91.40
67196;DHT22;54122;53.538;49.366;2023-11-19T06:43:17;-4.50;91.50
67196;DHT22;54122;53.538;49.366;2023-11-19T06:45:45;-4.10;91.50
67196;DHT22;54122;53.538;49.366;2023-11-19T06:48:11;-4.00;90.70
67196;DHT22;54122;53.538;49.366;2023-11-19T06:50:39;-3.90;90.20
67196;DHT22;54122;53.538;49.366;2023-11-19T06:53:06;-3.80;90.00
67196;DHT22;54122;53.538;49.366;2023-11-19T06:55:39;-3.80;89.40
67196;DHT22;54122;53.538;49.366;2023-11-19T06:58:06;-3.70;89.50
67196;DHT22;54122;53.538;49.366;2023-11-19T07:00:33;-3.60;90.10
67196;DHT22;54122;53.538;49.366;2023-11-19T07:03:02;-3.40;89.70
67196;DHT22;54122;53.538;49.366;2023-11-19T07:05:29;-3.20;88.50
67196;DHT22;54122;53.538;49.366;2023-11-19T07:07:57;-3.00;88.00
67196;DHT22;54122;53.538;49.366;2023-11-19T07:10:24;-2.90;87.20
67196;DHT22;54122;53.538;49.366;2023-11-19T07:12:53;-2.90;86.70
67196;DHT22;54122;53.538;49.366;2023-11-19T07:15:20;-2.80;86.30
67196;DHT22;54122;53.538;49.366;2023-11-19T07:17:48;-2.80;85.80
67196;DHT22;54122;53.538;49.366;2023-11-19T07:20:14;-2.70;85.60
67196;DHT22;54122;53.538;49.366;2023-11-19T07:22:43;-2.80;84.90
67196;DHT22;54122;53.538;49.366;2023-11-19T07:25:15;-2.80;84.40
67196;DHT22;54122;53.538;49.366;2023-11-19T07:27:42;-2.80;84.10
67196;DHT22;54122;53.538;49.366;2023-11-19T07:30:10;-2.80;84.00
67196;DHT22;54122;53.538;49.366;2023-11-19T07:32:37;-2.70;83.50
67196;DHT22;54122;53.538;49.366;2023-11-19T07:35:06;-2.60;83.70
67196;DHT22;54122;53.538;49.366;2023-11-19T07:37:33;-2.60;83.50
67196;DHT22;54122;53.538;49.366;2023-11-19T07:40:00;-2.40;83.40
67196;DHT22;54122;53.538;49.366;2023-11-19T07:42:27;-2.30;83.10
67196;DHT22;54122;53.538;49.366;2023-11-19T07:44:55;-2.20;83.50
67196;DHT22;54122;53.538;49.366;2023-11-19T07:47:24;-2.20;82.00
67196;DHT22;54122;53.538;49.366;2023-11-19T07:49:51;-2.20;81.70
67196;DHT22;54122;53.538;49.366;2023-11-19T07:52:17;-2.20;81.30
67196;DHT22;54122;53.538;49.366;2023-11-19T07:54:44;-2.20;81.20
67196;DHT22;54122;53.538;49.366;2023-11-19T07:57:11;-2.10;81.10
67196;DHT22;54122;53.538;49.366;2023-11-19T07:59:37;-2.00;81.30
67196;DHT22;54122;53.538;49.366;2023-11-19T08:02:06;-1.90;81.20
67196;DHT22;54122;53.538;49.366;2023-11-19T08:04:33;-1.90;80.70
67196;DHT22;54122;53.538;49.366;2023-11-19T08:06:59;-1.90;80.40
67196;DHT22;54122;53.538;49.366;2023-11-19T08:09:26;-1.90;80.40
67196;DHT22;54122;53.538;49.366;2023-11-19T08:11:53;-1.80;80.20
67196;DHT22;54122;53.538;49.366;2023-11-19T08:14:19;-1.90;79.70
67196;DHT22;54122;53.538;49.366;2023-11-19T08:16:45;-1.90;79.40
67196;DHT22;54122;53.538;49.366;2023-11-19T08:19:12;-1.90;79.60
67196;DHT22;54122;53.538;49.366;2023-11-19T08:21:39;-1.90;79.50
67196;DHT22;54122;53.538;49.366;2023-11-19T08:24:06;-1.90;79.40
67196;DHT22;54122;53.538;49.366;2023-11-19T08:26:32;-2.00;79.50
67196;DHT22;54122;53.538;49.366;2023-11-19T08:28:59;-2.00;79.40
67196;DHT22;54122;53.538;49.366;2023-11-19T08:31:26;-2.00;79.70
67196;DHT22;54122;53.538;49.366;2023-11-19T08:33:52;-2.00;79.50
67196;DHT22;54122;53.538;49.366;2023-11-19T08:36:19;-1.90;79.50
67196;DHT22;54122;53.538;49.366;2023-11-19T08:38:46;-1.80;79.40
67196;DHT22;54122;53.538;49.366;2023-11-19T08:41:15;-1.70;79.00
67196;DHT22;54122;53.538;49.366;2023-11-19T08:43:43;-1.60;78.80
67196;DHT22;54122;53.538;49.366;2023-11-19T08:46:11;-1.60;78.20
67196;DHT22;54122;53.538;49.366;2023-11-19T08:48:38;-1.60;78.00
67196;DHT22;54122;53.538;49.366;2023-11-19T08:51:05;-1.70;78.00
67196;DHT22;54122;53.538;49.366;2023-11-19T08:53:31;-1.80;78.50
67196;DHT22;54122;53.538;49.366;2023-11-19T08:55:57;-1.80;78.70
67196;DHT22;54122;53.538;49.366;2023-11-19T08:58:24;-1.70;78.50
67196;DHT22;54122;53.538;49.366;2023-11-19T09:00:50;-1.50;78.00
67196;DHT22;54122;53.538;49.366;2023-11-19T09:03:16;-1.40;77.50
67196;DHT22;54122;53.538;49.366;2023-11-19T09:05:43;-1.40;77.10
67196;DHT22;54122;53.538;49.366;2023-11-19T09:08:09;-1.40;76.80
67196;DHT22;54122;53.538;49.366;2023-11-19T09:10:37;-1.40;77.00
67196;DHT22;54122;53.538;49.366;2023-11-19T09:13:03;-1.30;77.00
67196;DHT22;54122;53.538;49.366;2023-11-19T09:15:30;-1.20;77.00
67196;DHT22;54122;53.538;49.366;2023-11-19T09:17:56;-1.10;76.70
67196;DHT22;54122;53.538;49.366;2023-11-19T09:20:22;-0.80;77.30
67196;DHT22;54122;53.538;49.366;2023-11-19T09:22:48;-0.30;77.40
67196;DHT22;54122;53.538;49.366;2023-11-19T09:25:15;0.30;76.50
67196;DHT22;54122;53.538;49.366;2023-11-19T09:27:44;0.80;73.80
67196;DHT22;54122;53.538;49.366;2023-11-19T09:30:10;1.00;72.10
67196;DHT22;54122;53.538;49.366;2023-11-19T09:32:37;0.80;71.10
67196;DHT22;54122;53.538;49.366;2023-11-19T09:35:04;0.60;70.00
67196;DHT22;54122;53.538;49.366;2023-11-19T09:37:30;0.30;70.50
67196;DHT22;54122;53.538;49.366;2023-11-19T09:39:56;-0.10;70.80
67196;DHT22;54122;53.538;49.366;2023-11-19T09:42:24;-0.40;71.60
67196;DHT22;54122;53.538;49.366;2023-11-19T09:44:51;-0.70;71.10
67196;DHT22;54122;53.538;49.366;2023-11-19T09:47:19;-0.90;71.50
67196;DHT22;54122;53.538;49.366;2023-11-19T09:49:46;-1.00;72.30
67196;DHT22;54122;53.538;49.366;2023-11-19T09:52:18;-1.00;72.20
67196;DHT22;54122;53.538;49.366;2023-11-19T09:54:45;-1.10;72.30
67196;DHT22;54122;53.538;49.366;2023-11-19T09:57:16;-1.30;72.60
67196;DHT22;54122;53.538;49.366;2023-11-19T09:59:45;-1.40;72.70
67196;DHT22;54122;53.538;49.366;2023-11-19T10:02:13;-1.50;72.90
67196;DHT22;54122;53.538;49.366;2023-11-19T10:04:43;-1.60;73.10
67196;DHT22;54122;53.538;49.366;2023-11-19T10:07:11;-1.50;73.10
67196;DHT22;54122;53.538;49.366;2023-11-19T10:09:38;-1.50;72.60
67196;DHT22;54122;53.538;49.366;2023-11-19T10:12:05;-1.60;72.50
67196;DHT22;54122;53.538;49.366;2023-11-19T10:14:38;-1.70;72.50
67196;DHT22;54122;53.538;49.366;2023-11-19T10:17:07;-1.90;73.10
67196;DHT22;54122;53.538;49.366;2023-11-19T10:19:34;-1.90;73.40
67196;DHT22;54122;53.538;49.366;2023-11-19T10:22:04;-1.90;73.40
67196;DHT22;54122;53.538;49.366;2023-11-19T10:24:33;-1.90;73.40
67196;DHT22;54122;53.538;49.366;2023-11-19T10:27:00;-1.80;73.40
67196;DHT22;54122;53.538;49.366;2023-11-19T10:29:30;-1.90;73.00
67196;DHT22;54122;53.538;49.366;2023-11-19T10:31:57;-2.00;73.10
67196;DHT22;54122;53.538;49.366;2023-11-19T10:34:27;-2.00;73.40
67196;DHT22;54122;53.538;49.366;2023-11-19T10:36:54;-2.10;73.50
67196;DHT22;54122;53.538;49.366;2023-11-19T10:39:20;-2.10;73.60
67196;DHT22;54122;53.538;49.366;2023-11-19T10:41:49;-2.10;73.60
67196;DHT22;54122;53.538;49.366;2023-11-19T10:44:44;-2.00;73.80
67196;DHT22;54122;53.538;49.366;2023-11-19T10:47:13;-1.90;73.70
67196;DHT22;54122;53.538;49.366;2023-11-19T10:49:40;-2.00;73.30
67196;DHT22;54122;53.538;49.366;2023-11-19T10:52:09;-2.00;73.50
67196;DHT22;54122;53.538;49.366;2023-11-19T10:54:35;-2.00;73.60
67196;DHT22;54122;53.538;49.366;2023-11-19T10:57:04;-2.00;73.70
67196;DHT22;54122;53.538;49.366;2023-11-19T10:59:34;-2.00;74.00
67196;DHT22;54122;53.538;49.366;2023-11-19T11:02:05;-2.00;74.00
67196;DHT22;54122;53.538;49.366;2023-11-19T11:04:36;-2.00;73.80
67196;DHT22;54122;53.538;49.366;2023-11-19T11:07:06;-2.10;73.70
67196;DHT22;54122;53.538;49.366;2023-11-19T11:09:33;-2.20;74.00
67196;DHT22;54122;53.538;49.366;2023-11-19T11:12:01;-2.40;74.20
67196;DHT22;54122;53.538;49.366;2023-11-19T11:14:29;-2.40;74.50
67196;DHT22;54122;53.538;49.366;2023-11-19T11:16:58;-2.50;74.90
67196;DHT22;54122;53.538;49.366;2023-11-19T11:19:24;-2.60;75.10
67196;DHT22;54122;53.538;49.366;2023-11-19T11:21:53;-2.80;75.40
67196;DHT22;54122;53.538;49.366;2023-11-19T11:27:31;-3.00;75.90
67196;DHT22;54122;53.538;49.366;2023-11-19T11:33:00;-3.10;76.00
67196;DHT22;54122;53.538;49.366;2023-11-19T11:35:55;-3.20;76.00
67196;DHT22;54122;53.538;49.366;2023-11-19T11:38:25;-3.40;76.40
67196;DHT22;54122;53.538;49.366;2023-11-19T11:41:22;-3.40;76.70
67196;DHT22;54122;53.538;49.366;2023-11-19T11:43:50;-3.60;76.80
67196;DHT22;54122;53.538;49.366;2023-11-19T11:49:04;-4.00;77.80
67196;DHT22;54122;53.538;49.366;2023-11-19T11:57:12;-4.30;79.00
67196;DHT22;54122;53.538;49.366;2023-11-19T12:02:09;-4.50;79.60
67196;DHT22;54122;53.538;49.366;2023-11-19T12:04:36;-4.60;79.80
67196;DHT22;54122;53.538;49.366;2023-11-19T12:07:14;-4.70;80.10
67196;DHT22;54122;53.538;49.366;2023-11-19T12:09:46;-4.70;80.60
67196;DHT22;54122;53.538;49.366;2023-11-19T12:12:22;-4.60;80.70
67196;DHT22;54122;53.538;49.366;2023-11-19T12:20:01;-4.20;80.00
67196;DHT22;54122;53.538;49.366;2023-11-19T12:22:28;-4.20;79.70
67196;DHT22;54122;53.538;49.366;2023-11-19T12:24:54;-4.30;79.40
67196;DHT22;54122;53.538;49.366;2023-11-19T12:27:22;-4.30;79.60
67196;DHT22;54122;53.538;49.366;2023-11-19T12:29:49;-4.40;79.70
67196;DHT22;54122;53.538;49.366;2023-11-19T12:32:15;-4.40;79.90
67196;DHT22;54122;53.538;49.366;2023-11-19T12:34:43;-4.50;80.20
67196;DHT22;54122;53.538;49.366;2023-11-19T12:37:10;-4.50;80.40
67196;DHT22;54122;53.538;49.366;2023-11-19T12:39:37;-4.50;80.50
67196;DHT22;54122;53.538;49.366;2023-11-19T12:42:03;-4.50;80.30
67196;DHT22;54122;53.538;49.366;2023-11-19T12:44:31;-4.60;80.30
67196;DHT22;54122;53.538;49.366;2023-11-19T12:49:31;-4.90;81.10
67196;DHT22;54122;53.538;49.366;2023-11-19T12:51:58;-5.00;81.40
67196;DHT22;54122;53.538;49.366;2023-11-19T12:54:34;-5.10;81.70
67196;DHT22;54122;53.538;49.366;2023-11-19T12:57:03;-5.20;81.90
67196;DHT22;54122;53.538;49.366;2023-11-19T12:59:31;-5.40;82.00
67196;DHT22;54122;53.538;49.366;2023-11-19T13:01:59;-5.50;82.30
67196;DHT22;54122;53.538;49.366;2023-11-19T13:04:30;-5.60;82.60
67196;DHT22;54122;53.538;49.366;2023-11-19T13:07:00;-5.80;83.00
67196;DHT22;54122;53.538;49.366;2023-11-19T13:09:30;-5.90;83.30
67196;DHT22;54122;53.538;49.366;2023-11-19T13:11:57;-5.90;83.90
67196;DHT22;54122;53.538;49.366;2023-11-19T13:14:36;-5.90;83.90
67196;DHT22;54122;53.538;49.366;2023-11-19T13:17:04;-5.90;83.80
67196;DHT22;54122;53.538;49.366;2023-11-19T13:19:31;-5.90;84.00
67196;DHT22;54122;53.538;49.366;2023-11-19T13:21:58;-6.00;83.80
67196;DHT22;54122;53.538;49.366;2023-11-19T13:24:25;-6.10;83.60
67196;DHT22;54122;53.538;49.366;2023-11-19T13:26:52;-6.30;83.60
67196;DHT22;54122;53.538;49.366;2023-11-19T13:29:18;-6.40;83.90
67196;DHT22;54122;53.538;49.366;2023-11-19T13:31:45;-6.50;84.20
67196;DHT22;54122;53.538;49.366;2023-11-19T13:34:12;-6.60;84.30
67196;DHT22;54122;53.538;49.366;2023-11-19T13:36:39;-6.80;84.40
67196;DHT22;54122;53.538;49.366;2023-11-19T13:39:08;-6.90;84.80
67196;DHT22;54122;53.538;49.366;2023-11-19T13:41:35;-7.00;85.20
67196;DHT22;54122;53.538;49.366;2023-11-19T13:44:02;-7.10;85.50
67196;DHT22;54122;53.538;49.366;2023-11-19T13:46:29;-7.20;85.80
67196;DHT22;54122;53.538;49.366;2023-11-19T13:48:57;-7.30;86.00
67196;DHT22;54122;53.538;49.366;2023-11-19T13:51:24;-7.30;86.10
67196;DHT22;54122;53.538;49.366;2023-11-19T13:53:50;-7.40;86.20
67196;DHT22;54122;53.538;49.366;2023-11-19T13:56:17;-7.40;86.40
67196;DHT22;54122;53.538;49.366;2023-11-19T13:58:43;-7.50;86.40
67196;DHT22;54122;53.538;49.366;2023-11-19T14:01:09;-7.50;86.50
67196;DHT22;54122;53.538;49.366;2023-11-19T14:03:40;-7.50;86.70
67196;DHT22;54122;53.538;49.366;2023-11-19T14:06:07;-7.60;86.70
67196;DHT22;54122;53.538;49.366;2023-11-19T14:08:34;-7.60;86.80
67196;DHT22;54122;53.538;49.366;2023-11-19T14:11:00;-7.60;86.70
67196;DHT22;54122;53.538;49.366;2023-11-19T14:13:27;-7.70;86.70
67196;DHT22;54122;53.538;49.366;2023-11-19T14:15:53;-7.70;86.90
67196;DHT22;54122;53.538;49.366;2023-11-19T14:18:20;-7.70;87.10
67196;DHT22;54122;53.538;49.366;2023-11-19T14:20:46;-7.70;87.20
67196;DHT22;54122;53.538;49.366;2023-11-19T14:23:13;-7.70;87.20
67196;DHT22;54122;53.538;49.366;2023-11-19T14:25:39;-7.80;87.00
67196;DHT22;54122;53.538;49.366;2023-11-19T14:28:05;-7.80;87.10
67196;DHT22;54122;53.538;49.366;2023-11-19T14:30:32;-7.80;87.30
67196;DHT22;54122;53.538;49.366;2023-11-19T14:32:59;-7.80;87.50
67196;DHT22;54122;53.538;49.366;2023-11-19T14:35:25;-7.80;87.50
67196;DHT22;54122;53.538;49.366;2023-11-19T14:37:51;-7.80;87.60
67196;DHT22;54122;53.538;49.366;2023-11-19T14:40:17;-7.90;87.50
67196;DHT22;54122;53.538;49.366;2023-11-19T14:42:44;-7.80;87.50
67196;DHT22;54122;53.538;49.366;2023-11-19T14:45:10;-7.90;87.60
67196;DHT22;54122;53.538;49.366;2023-11-19T14:47:38;-7.90;87.60
67196;DHT22;54122;53.538;49.366;2023-11-19T14:50:06;-7.90;87.60
67196;DHT22;54122;53.538;49.366;2023-11-19T14:52:35;-8.00;87.50
67196;DHT22;54122;53.538;49.366;2023-11-19T14:55:02;-8.00;87.70
67196;DHT22;54122;53.538;49.366;2023-11-19T14:57:30;-8.00;87.80
67196;DHT22;54122;53.538;49.366;2023-11-19T14:59:57;-8.10;87.80
67196;DHT22;54122;53.538;49.366;2023-11-19T15:02:25;-8.10;87.80
67196;DHT22;54122;53.538;49.366;2023-11-19T15:04:51;-8.20;87.70
67196;DHT22;54122;53.538;49.366;2023-11-19T15:07:18;-8.30;87.70
67196;DHT22;54122;53.538;49.366;2023-11-19T15:09:45;-8.30;87.80
67196;DHT22;54122;53.538;49.366;2023-11-19T15:12:12;-8.30;88.00
67196;DHT22;54122;53.538;49.366;2023-11-19T15:14:39;-8.40;88.00
67196;DHT22;54122;53.538;49.366;2023-11-19T15:17:06;-8.40;88.10
67196;DHT22;54122;53.538;49.366;2023-11-19T15:19:34;-8.40;88.40
67196;DHT22;54122;53.538;49.366;2023-11-19T15:22:04;-8.40;89.20
67196;DHT22;54122;53.538;49.366;2023-11-19T15:24:31;-8.50;88.20
67196;DHT22;54122;53.538;49.366;2023-11-19T15:26:59;-8.50;88.30
67196;DHT22;54122;53.538;49.366;2023-11-19T15:29:25;-8.50;88.50
67196;DHT22;54122;53.538;49.366;2023-11-19T15:31:52;-8.50;88.60
67196;DHT22;54122;53.538;49.366;2023-11-19T15:34:18;-8.50;88.60
67196;DHT22;54122;53.538;49.366;2023-11-19T15:36:47;-8.60;88.50
67196;DHT22;54122;53.538;49.366;2023-11-19T15:39:14;-8.60;88.60
67196;DHT22;54122;53.538;49.366;2023-11-19T15:41:41;-8.50;88.60
67196;DHT22;54122;53.538;49.366;2023-11-19T15:44:07;-8.50;88.80
67196;DHT22;54122;53.538;49.366;2023-11-19T15:46:34;-8.50;88.80